sensor_id;sensor_type;location;lat;lon;timestamp;P1;durP1;ratioP1;P2;durP2;ratioP2
17953;SDS011;9102;53.548;9.926;2023-04-15T00:00:35;7.88;;;5.13;;
17953;SDS011;9102;53.548;9.926;2023-04-15T00:03:03;7.95;;;5.60;;
17953;SDS011;9102;53.548;9.926;2023-04-15T00:05:31;8.85;;;5.40;;
17953;SDS011;9102;53.548;9.926;2023-04-15T00:07:58;8.88;;;5.43;;
17953;SDS011;9102;53.548;9.926;2023-04-15T00:10:25;7.10;;;5.15;;
17953;SDS011;9102;53.548;9.926;2023-04-15T00:12:52;9.45;;;5.63;;
17953;SDS011;9102;53.548;9.926;2023-04-15T00:15:19;10.30;;;5.43;;
17953;SDS011;9102;53.548;9.926;2023-04-15T00:17:48;8.88;;;5.45;;
17953;SDS011;9102;53.548;9.926;2023-04-15T00:20:17;10.10;;;5.90;;
17953;SDS011;9102;53.548;9.926;2023-04-15T00:22:44;9.43;;;6.30;;
17953;SDS011;9102;53.548;9.926;2023-04-15T00:25:11;10.48;;;6.50;;
17953;SDS011;9102;53.548;9.926;2023-04-15T00:27:39;13.48;;;6.80;;
17953;SDS011;9102;53.548;9.926;2023-04-15T00:30:06;11.43;;;7.00;;
17953;SDS011;9102;53.548;9.926;2023-04-15T00:32:33;14.93;;;6.90;;
17953;SDS011;9102;53.548;9.926;2023-04-15T00:35:00;11.23;;;6.88;;
17953;SDS011;9102;53.548;9.926;2023-04-15T00:37:30;14.07;;;6.93;;
17953;SDS011;9102;53.548;9.926;2023-04-15T00:39:59;11.57;;;7.53;;
17953;SDS011;9102;53.548;9.926;2023-04-15T00:42:33;11.88;;;7.50;;
17953;SDS011;9102;53.548;9.926;2023-04-15T00:45:00;11.00;;;6.80;;
17953;SDS011;9102;53.548;9.926;2023-04-15T00:47:27;12.52;;;7.57;;
17953;SDS011;9102;53.548;9.926;2023-04-15T00:49:55;18.10;;;7.50;;
17953;SDS011;9102;53.548;9.926;2023-04-15T00:52:22;13.25;;;7.68;;
17953;SDS011;9102;53.548;9.926;2023-04-15T00:54:50;17.02;;;8.82;;
17953;SDS011;9102;53.548;9.926;2023-04-15T00:57:20;14.20;;;8.32;;
17953;SDS011;9102;53.548;9.926;2023-04-15T00:59:50;18.75;;;8.38;;
17953;SDS011;9102;53.548;9.926;2023-04-15T01:02:18;18.08;;;9.38;;
17953;SDS011;9102;53.548;9.926;2023-04-15T01:04:45;20.95;;;10.60;;
17953;SDS011;9102;53.548;9.926;2023-04-15T01:07:12;16.98;;;9.35;;
17953;SDS011;9102;53.548;9.926;2023-04-15T01:09:39;18.30;;;8.48;;
17953;SDS011;9102;53.548;9.926;2023-04-15T01:12:08;18.65;;;10.10;;
17953;SDS011;9102;53.548;9.926;2023-04-15T01:14:39;16.77;;;9.73;;
17953;SDS011;9102;53.548;9.926;2023-04-15T01:17:06;20.40;;;10.23;;
17953;SDS011;9102;53.548;9.926;2023-04-15T01:19:33;20.85;;;10.23;;
17953;SDS011;9102;53.548;9.926;2023-04-15T01:22:01;25.92;;;10.90;;
17953;SDS011;9102;53.548;9.926;2023-04-15T01:24:29;20.80;;;10.98;;
17953;SDS011;9102;53.548;9.926;2023-04-15T01:26:58;20.70;;;11.13;;
17953;SDS011;9102;53.548;9.926;2023-04-15T01:29:25;26.52;;;11.68;;
17953;SDS011;9102;53.548;9.926;2023-04-15T01:31:53;22.25;;;11.50;;
17953;SDS011;9102;53.548;9.926;2023-04-15T01:34:21;21.48;;;11.32;;
17953;SDS011;9102;53.548;9.926;2023-04-15T01:36:48;24.77;;;11.77;;
17953;SDS011;9102;53.548;9.926;2023-04-15T01:39:15;24.17;;;12.43;;
17953;SDS011;9102;53.548;9.926;2023-04-15T01:41:42;20.58;;;11.95;;
17953;SDS011;9102;53.548;9.926;2023-04-15T01:44:10;26.15;;;12.73;;
17953;SDS011;9102;53.548;9.926;2023-04-15T01:46:37;26.77;;;12.10;;
17953;SDS011;9102;53.548;9.926;2023-04-15T01:49:04;22.55;;;11.93;;
17953;SDS011;9102;53.548;9.926;2023-04-15T01:51:31;24.35;;;12.52;;
17953;SDS011;9102;53.548;9.926;2023-04-15T01:53:58;22.45;;;12.38;;
17953;SDS011;9102;53.548;9.926;2023-04-15T01:56:25;26.23;;;12.90;;
17953;SDS011;9102;53.548;9.926;2023-04-15T01:58:52;25.40;;;12.93;;
17953;SDS011;9102;53.548;9.926;2023-04-15T02:01:20;30.27;;;14.43;;
17953;SDS011;9102;53.548;9.926;2023-04-15T02:03:47;26.77;;;13.73;;
17953;SDS011;9102;53.548;9.926;2023-04-15T02:06:13;28.75;;;13.00;;
17953;SDS011;9102;53.548;9.926;2023-04-15T02:08:40;24.80;;;13.13;;
17953;SDS011;9102;53.548;9.926;2023-04-15T02:11:07;28.90;;;13.60;;
17953;SDS011;9102;53.548;9.926;2023-04-15T02:13:34;29.00;;;12.98;;
17953;SDS011;9102;53.548;9.926;2023-04-15T02:16:01;29.60;;;13.77;;
17953;SDS011;9102;53.548;9.926;2023-04-15T02:18:29;34.42;;;13.68;;
17953;SDS011;9102;53.548;9.926;2023-04-15T02:20:56;29.05;;;14.10;;
17953;SDS011;9102;53.548;9.926;2023-04-15T02:23:23;28.55;;;13.57;;
17953;SDS011;9102;53.548;9.926;2023-04-15T02:25:50;30.20;;;14.13;;
17953;SDS011;9102;53.548;9.926;2023-04-15T02:28:17;35.20;;;14.57;;
17953;SDS011;9102;53.548;9.926;2023-04-15T02:30:46;37.35;;;16.15;;
17953;SDS011;9102;53.548;9.926;2023-04-15T02:33:14;34.50;;;14.38;;
17953;SDS011;9102;53.548;9.926;2023-04-15T02:35:43;30.67;;;14.30;;
17953;SDS011;9102;53.548;9.926;2023-04-15T02:38:09;38.03;;;15.65;;
17953;SDS011;9102;53.548;9.926;2023-04-15T02:40:36;30.08;;;14.48;;
17953;SDS011;9102;53.548;9.926;2023-04-15T02:43:03;34.05;;;15.55;;
17953;SDS011;9102;53.548;9.926;2023-04-15T02:45:31;29.50;;;14.05;;
17953;SDS011;9102;53.548;9.926;2023-04-15T02:47:58;31.58;;;14.93;;
17953;SDS011;9102;53.548;9.926;2023-04-15T02:50:27;35.45;;;15.05;;
17953;SDS011;9102;53.548;9.926;2023-04-15T02:52:57;40.00;;;16.17;;
17953;SDS011;9102;53.548;9.926;2023-04-15T02:55:25;37.10;;;15.65;;
17953;SDS011;9102;53.548;9.926;2023-04-15T02:57:52;37.10;;;16.67;;
17953;SDS011;9102;53.548;9.926;2023-04-15T03:00:19;40.60;;;15.73;;
17953;SDS011;9102;53.548;9.926;2023-04-15T03:02:45;35.47;;;15.90;;
17953;SDS011;9102;53.548;9.926;2023-04-15T03:05:16;41.92;;;17.60;;
17953;SDS011;9102;53.548;9.926;2023-04-15T03:07:43;35.30;;;16.65;;
17953;SDS011;9102;53.548;9.926;2023-04-15T03:10:11;38.83;;;16.52;;
17953;SDS011;9102;53.548;9.926;2023-04-15T03:12:38;36.70;;;16.02;;
17953;SDS011;9102;53.548;9.926;2023-04-15T03:15:07;40.28;;;16.45;;
17953;SDS011;9102;53.548;9.926;2023-04-15T03:17:36;40.58;;;16.88;;
17953;SDS011;9102;53.548;9.926;2023-04-15T03:20:06;36.28;;;15.93;;
17953;SDS011;9102;53.548;9.926;2023-04-15T03:22:33;42.42;;;16.67;;
17953;SDS011;9102;53.548;9.926;2023-04-15T03:25:00;40.65;;;17.00;;
17953;SDS011;9102;53.548;9.926;2023-04-15T03:27:28;43.72;;;17.80;;
17953;SDS011;9102;53.548;9.926;2023-04-15T03:29:56;43.40;;;17.45;;
17953;SDS011;9102;53.548;9.926;2023-04-15T03:32:22;42.08;;;18.05;;
17953;SDS011;9102;53.548;9.926;2023-04-15T03:34:49;42.35;;;16.92;;
17953;SDS011;9102;53.548;9.926;2023-04-15T03:37:16;41.75;;;17.35;;
17953;SDS011;9102;53.548;9.926;2023-04-15T03:39:43;44.53;;;18.48;;
17953;SDS011;9102;53.548;9.926;2023-04-15T03:42:10;44.30;;;18.23;;
17953;SDS011;9102;53.548;9.926;2023-04-15T03:44:38;42.90;;;17.77;;
17953;SDS011;9102;53.548;9.926;2023-04-15T03:47:05;46.25;;;19.15;;
17953;SDS011;9102;53.548;9.926;2023-04-15T03:49:32;42.65;;;18.70;;
17953;SDS011;9102;53.548;9.926;2023-04-15T03:51:58;47.60;;;18.98;;
17953;SDS011;9102;53.548;9.926;2023-04-15T03:54:25;49.55;;;19.55;;
17953;SDS011;9102;53.548;9.926;2023-04-15T03:56:52;48.15;;;20.25;;
17953;SDS011;9102;53.548;9.926;2023-04-15T03:59:20;56.50;;;21.10;;
17953;SDS011;9102;53.548;9.926;2023-04-15T04:01:48;53.17;;;20.33;;
17953;SDS011;9102;53.548;9.926;2023-04-15T04:04:14;53.63;;;21.48;;
17953;SDS011;9102;53.548;9.926;2023-04-15T04:06:41;53.35;;;20.63;;
17953;SDS011;9102;53.548;9.926;2023-04-15T04:09:08;53.67;;;21.35;;
17953;SDS011;9102;53.548;9.926;2023-04-15T04:11:35;63.72;;;22.13;;
17953;SDS011;9102;53.548;9.926;2023-04-15T04:14:02;57.70;;;22.23;;
17953;SDS011;9102;53.548;9.926;2023-04-15T04:16:29;58.65;;;22.63;;
17953;SDS011;9102;53.548;9.926;2023-04-15T04:18:57;56.92;;;21.92;;
17953;SDS011;9102;53.548;9.926;2023-04-15T04:21:24;65.63;;;23.33;;
17953;SDS011;9102;53.548;9.926;2023-04-15T04:23:51;70.00;;;25.52;;
17953;SDS011;9102;53.548;9.926;2023-04-15T04:26:18;63.22;;;22.95;;
17953;SDS011;9102;53.548;9.926;2023-04-15T04:28:45;68.35;;;23.92;;
17953;SDS011;9102;53.548;9.926;2023-04-15T04:31:12;65.05;;;23.00;;
17953;SDS011;9102;53.548;9.926;2023-04-15T04:33:39;71.95;;;23.63;;
17953;SDS011;9102;53.548;9.926;2023-04-15T04:36:07;68.85;;;23.42;;
17953;SDS011;9102;53.548;9.926;2023-04-15T04:38:34;70.18;;;24.55;;
17953;SDS011;9102;53.548;9.926;2023-04-15T04:41:01;79.57;;;25.80;;
17953;SDS011;9102;53.548;9.926;2023-04-15T04:43:28;75.38;;;25.75;;
17953;SDS011;9102;53.548;9.926;2023-04-15T04:45:55;70.25;;;25.58;;
17953;SDS011;9102;53.548;9.926;2023-04-15T04:48:22;79.32;;;27.52;;
17953;SDS011;9102;53.548;9.926;2023-04-15T04:50:49;83.30;;;26.20;;
17953;SDS011;9102;53.548;9.926;2023-04-15T04:53:17;69.68;;;25.13;;
17953;SDS011;9102;53.548;9.926;2023-04-15T04:55:44;83.63;;;28.05;;
17953;SDS011;9102;53.548;9.926;2023-04-15T04:58:11;83.47;;;28.02;;
17953;SDS011;9102;53.548;9.926;2023-04-15T05:00:38;93.07;;;29.23;;
17953;SDS011;9102;53.548;9.926;2023-04-15T05:03:06;85.10;;;29.23;;
17953;SDS011;9102;53.548;9.926;2023-04-15T05:05:33;90.82;;;31.10;;
17953;SDS011;9102;53.548;9.926;2023-04-15T05:08:00;94.38;;;29.70;;
17953;SDS011;9102;53.548;9.926;2023-04-15T05:10:29;90.93;;;30.23;;
17953;SDS011;9102;53.548;9.926;2023-04-15T05:12:55;88.25;;;29.90;;
17953;SDS011;9102;53.548;9.926;2023-04-15T05:15:22;94.00;;;31.20;;
17953;SDS011;9102;53.548;9.926;2023-04-15T05:17:49;98.25;;;31.10;;
17953;SDS011;9102;53.548;9.926;2023-04-15T05:20:16;100.18;;;31.60;;
17953;SDS011;9102;53.548;9.926;2023-04-15T05:22:43;105.45;;;32.85;;
17953;SDS011;9102;53.548;9.926;2023-04-15T05:25:10;114.35;;;33.47;;
17953;SDS011;9102;53.548;9.926;2023-04-15T05:27:39;102.20;;;32.78;;
17953;SDS011;9102;53.548;9.926;2023-04-15T05:30:06;112.72;;;33.95;;
17953;SDS011;9102;53.548;9.926;2023-04-15T05:32:34;112.38;;;32.45;;
17953;SDS011;9102;53.548;9.926;2023-04-15T05:35:00;118.20;;;33.70;;
17953;SDS011;9102;53.548;9.926;2023-04-15T05:37:27;108.70;;;35.05;;
17953;SDS011;9102;53.548;9.926;2023-04-15T05:39:54;104.05;;;34.28;;
17953;SDS011;9102;53.548;9.926;2023-04-15T05:42:21;105.78;;;36.80;;
17953;SDS011;9102;53.548;9.926;2023-04-15T05:44:49;122.68;;;35.30;;
17953;SDS011;9102;53.548;9.926;2023-04-15T05:47:16;119.30;;;36.58;;
17953;SDS011;9102;53.548;9.926;2023-04-15T05:49:43;129.60;;;37.55;;
17953;SDS011;9102;53.548;9.926;2023-04-15T05:52:12;136.95;;;39.53;;
17953;SDS011;9102;53.548;9.926;2023-04-15T05:54:38;133.98;;;40.47;;
17953;SDS011;9102;53.548;9.926;2023-04-15T05:57:08;126.72;;;39.13;;
17953;SDS011;9102;53.548;9.926;2023-04-15T05:59:35;110.20;;;37.38;;
17953;SDS011;9102;53.548;9.926;2023-04-15T06:02:04;123.97;;;39.38;;
17953;SDS011;9102;53.548;9.926;2023-04-15T06:04:31;138.02;;;39.78;;
17953;SDS011;9102;53.548;9.926;2023-04-15T06:06:58;134.93;;;41.03;;
17953;SDS011;9102;53.548;9.926;2023-04-15T06:09:25;119.55;;;38.38;;
17953;SDS011;9102;53.548;9.926;2023-04-15T06:11:52;125.80;;;39.45;;
17953;SDS011;9102;53.548;9.926;2023-04-15T06:14:20;123.95;;;39.10;;
17953;SDS011;9102;53.548;9.926;2023-04-15T06:16:47;130.00;;;41.03;;
17953;SDS011;9102;53.548;9.926;2023-04-15T06:19:15;133.90;;;40.88;;
17953;SDS011;9102;53.548;9.926;2023-04-15T06:21:42;119.93;;;39.38;;
17953;SDS011;9102;53.548;9.926;2023-04-15T06:24:10;117.78;;;40.00;;
17953;SDS011;9102;53.548;9.926;2023-04-15T06:26:37;130.10;;;40.08;;
17953;SDS011;9102;53.548;9.926;2023-04-15T06:29:03;128.32;;;41.53;;
17953;SDS011;9102;53.548;9.926;2023-04-15T06:31:30;119.35;;;40.30;;
17953;SDS011;9102;53.548;9.926;2023-04-15T06:33:57;132.57;;;43.22;;
17953;SDS011;9102;53.548;9.926;2023-04-15T06:36:26;129.82;;;43.50;;
17953;SDS011;9102;53.548;9.926;2023-04-15T06:38:53;134.07;;;42.90;;
17953;SDS011;9102;53.548;9.926;2023-04-15T06:41:20;136.50;;;45.33;;
17953;SDS011;9102;53.548;9.926;2023-04-15T06:43:47;156.35;;;45.63;;
17953;SDS011;9102;53.548;9.926;2023-04-15T06:46:14;145.82;;;43.65;;
17953;SDS011;9102;53.548;9.926;2023-04-15T06:48:41;145.65;;;45.58;;
17953;SDS011;9102;53.548;9.926;2023-04-15T06:51:08;135.07;;;44.92;;
17953;SDS011;9102;53.548;9.926;2023-04-15T06:53:40;145.68;;;45.40;;
17953;SDS011;9102;53.548;9.926;2023-04-15T06:56:08;146.52;;;46.75;;
17953;SDS011;9102;53.548;9.926;2023-04-15T06:58:37;154.32;;;47.28;;
17953;SDS011;9102;53.548;9.926;2023-04-15T07:01:04;159.45;;;49.55;;
17953;SDS011;9102;53.548;9.926;2023-04-15T07:03:31;137.43;;;46.60;;
17953;SDS011;9102;53.548;9.926;2023-04-15T07:05:58;148.15;;;50.60;;
17953;SDS011;9102;53.548;9.926;2023-04-15T07:08:26;155.15;;;51.10;;
17953;SDS011;9102;53.548;9.926;2023-04-15T07:10:55;165.95;;;53.35;;
17953;SDS011;9102;53.548;9.926;2023-04-15T07:13:22;156.75;;;52.00;;
17953;SDS011;9102;53.548;9.926;2023-04-15T07:15:48;155.00;;;52.78;;
17953;SDS011;9102;53.548;9.926;2023-04-15T07:18:20;149.90;;;55.38;;
17953;SDS011;9102;53.548;9.926;2023-04-15T07:20:47;161.13;;;54.33;;
17953;SDS011;9102;53.548;9.926;2023-04-15T07:23:14;149.63;;;53.28;;
17953;SDS011;9102;53.548;9.926;2023-04-15T07:25:41;144.55;;;53.38;;
17953;SDS011;9102;53.548;9.926;2023-04-15T07:28:09;154.15;;;55.92;;
17953;SDS011;9102;53.548;9.926;2023-04-15T07:30:38;153.07;;;56.15;;
17953;SDS011;9102;53.548;9.926;2023-04-15T07:33:05;151.18;;;55.38;;
17953;SDS011;9102;53.548;9.926;2023-04-15T07:35:32;144.63;;;54.20;;
17953;SDS011;9102;53.548;9.926;2023-04-15T07:38:01;161.02;;;55.65;;
17953;SDS011;9102;53.548;9.926;2023-04-15T07:40:27;154.13;;;54.10;;
17953;SDS011;9102;53.548;9.926;2023-04-15T07:42:54;150.85;;;52.95;;
17953;SDS011;9102;53.548;9.926;2023-04-15T07:45:24;144.77;;;52.75;;
17953;SDS011;9102;53.548;9.926;2023-04-15T07:47:51;141.45;;;52.03;;
17953;SDS011;9102;53.548;9.926;2023-04-15T07:50:20;137.02;;;52.53;;
17953;SDS011;9102;53.548;9.926;2023-04-15T07:52:47;143.15;;;52.85;;
17953;SDS011;9102;53.548;9.926;2023-04-15T07:55:15;145.68;;;52.67;;
17953;SDS011;9102;53.548;9.926;2023-04-15T07:57:44;146.85;;;54.40;;
17953;SDS011;9102;53.548;9.926;2023-04-15T08:00:11;138.93;;;52.85;;
17953;SDS011;9102;53.548;9.926;2023-04-15T08:02:43;146.88;;;52.03;;
17953;SDS011;9102;53.548;9.926;2023-04-15T08:05:11;140.77;;;51.08;;
17953;SDS011;9102;53.548;9.926;2023-04-15T08:07:39;141.00;;;51.83;;
17953;SDS011;9102;53.548;9.926;2023-04-15T08:10:06;128.73;;;51.08;;
17953;SDS011;9102;53.548;9.926;2023-04-15T08:12:33;136.23;;;51.05;;
17953;SDS011;9102;53.548;9.926;2023-04-15T08:15:01;133.80;;;50.60;;
17953;SDS011;9102;53.548;9.926;2023-04-15T08:17:28;141.05;;;51.90;;
17953;SDS011;9102;53.548;9.926;2023-04-15T08:19:56;138.88;;;51.65;;
17953;SDS011;9102;53.548;9.926;2023-04-15T08:22:26;141.18;;;51.25;;
17953;SDS011;9102;53.548;9.926;2023-04-15T08:24:55;146.65;;;52.22;;
17953;SDS011;9102;53.548;9.926;2023-04-15T08:27:22;140.02;;;52.53;;
17953;SDS011;9102;53.548;9.926;2023-04-15T08:29:49;131.07;;;51.45;;
17953;SDS011;9102;53.548;9.926;2023-04-15T08:32:16;132.93;;;51.33;;
17953;SDS011;9102;53.548;9.926;2023-04-15T08:34:43;136.60;;;51.92;;
17953;SDS011;9102;53.548;9.926;2023-04-15T08:37:11;137.25;;;53.60;;
17953;SDS011;9102;53.548;9.926;2023-04-15T08:39:43;135.95;;;51.58;;
17953;SDS011;9102;53.548;9.926;2023-04-15T08:42:11;133.57;;;51.85;;
17953;SDS011;9102;53.548;9.926;2023-04-15T08:44:42;132.45;;;51.95;;
17953;SDS011;9102;53.548;9.926;2023-04-15T08:47:10;126.10;;;51.05;;
17953;SDS011;9102;53.548;9.926;2023-04-15T08:49:39;125.30;;;50.83;;
17953;SDS011;9102;53.548;9.926;2023-04-15T08:52:06;114.93;;;48.53;;
17953;SDS011;9102;53.548;9.926;2023-04-15T08:54:36;106.85;;;48.72;;
17953;SDS011;9102;53.548;9.926;2023-04-15T08:57:03;113.65;;;48.17;;
17953;SDS011;9102;53.548;9.926;2023-04-15T08:59:30;116.07;;;47.90;;
17953;SDS011;9102;53.548;9.926;2023-04-15T09:01:58;109.00;;;45.78;;
17953;SDS011;9102;53.548;9.926;2023-04-15T09:04:25;101.63;;;44.72;;
17953;SDS011;9102;53.548;9.926;2023-04-15T09:06:53;99.32;;;45.45;;
17953;SDS011;9102;53.548;9.926;2023-04-15T09:09:21;93.10;;;42.80;;
17953;SDS011;9102;53.548;9.926;2023-04-15T09:11:49;91.28;;;41.40;;
17953;SDS011;9102;53.548;9.926;2023-04-15T09:14:16;81.85;;;40.95;;
17953;SDS011;9102;53.548;9.926;2023-04-15T09:16:55;79.88;;;39.47;;
17953;SDS011;9102;53.548;9.926;2023-04-15T09:19:23;83.28;;;40.35;;
17953;SDS011;9102;53.548;9.926;2023-04-15T09:21:52;75.18;;;37.95;;
17953;SDS011;9102;53.548;9.926;2023-04-15T09:24:33;83.03;;;39.35;;
17953;SDS011;9102;53.548;9.926;2023-04-15T09:27:04;76.15;;;37.13;;
17953;SDS011;9102;53.548;9.926;2023-04-15T09:29:31;78.03;;;37.35;;
17953;SDS011;9102;53.548;9.926;2023-04-15T09:32:08;70.30;;;36.65;;
17953;SDS011;9102;53.548;9.926;2023-04-15T09:34:35;68.13;;;35.67;;
17953;SDS011;9102;53.548;9.926;2023-04-15T09:37:02;73.60;;;37.72;;
17953;SDS011;9102;53.548;9.926;2023-04-15T09:40:07;71.43;;;35.70;;
17953;SDS011;9102;53.548;9.926;2023-04-15T09:42:38;65.28;;;34.83;;
17953;SDS011;9102;53.548;9.926;2023-04-15T09:45:20;70.80;;;34.75;;
17953;SDS011;9102;53.548;9.926;2023-04-15T09:47:47;65.65;;;33.50;;
17953;SDS011;9102;53.548;9.926;2023-04-15T09:50:17;69.15;;;33.72;;
17953;SDS011;9102;53.548;9.926;2023-04-15T09:52:44;64.38;;;33.22;;
17953;SDS011;9102;53.548;9.926;2023-04-15T09:55:12;60.00;;;33.25;;
17953;SDS011;9102;53.548;9.926;2023-04-15T09:57:42;64.30;;;33.72;;
17953;SDS011;9102;53.548;9.926;2023-04-15T10:00:11;63.60;;;32.40;;
17953;SDS011;9102;53.548;9.926;2023-04-15T10:02:39;61.20;;;32.42;;
17953;SDS011;9102;53.548;9.926;2023-04-15T10:05:08;53.17;;;30.88;;
17953;SDS011;9102;53.548;9.926;2023-04-15T10:07:37;57.00;;;31.60;;
17953;SDS011;9102;53.548;9.926;2023-04-15T10:10:05;54.85;;;30.40;;
17953;SDS011;9102;53.548;9.926;2023-04-15T10:12:33;54.35;;;29.77;;
17953;SDS011;9102;53.548;9.926;2023-04-15T10:15:04;48.67;;;28.75;;
17953;SDS011;9102;53.548;9.926;2023-04-15T10:17:31;51.72;;;28.98;;
17953;SDS011;9102;53.548;9.926;2023-04-15T10:20:01;53.28;;;28.85;;
17953;SDS011;9102;53.548;9.926;2023-04-15T10:22:29;51.22;;;29.23;;
17953;SDS011;9102;53.548;9.926;2023-04-15T10:24:57;50.85;;;29.00;;
17953;SDS011;9102;53.548;9.926;2023-04-15T10:27:25;50.72;;;29.27;;
17953;SDS011;9102;53.548;9.926;2023-04-15T10:29:53;47.97;;;27.60;;
17953;SDS011;9102;53.548;9.926;2023-04-15T10:32:23;51.67;;;29.45;;
17953;SDS011;9102;53.548;9.926;2023-04-15T10:34:51;47.85;;;26.25;;
17953;SDS011;9102;53.548;9.926;2023-04-15T10:37:21;46.20;;;26.67;;
17953;SDS011;9102;53.548;9.926;2023-04-15T10:40:00;44.53;;;25.52;;
17953;SDS011;9102;53.548;9.926;2023-04-15T10:42:32;45.45;;;25.95;;
17953;SDS011;9102;53.548;9.926;2023-04-15T10:45:00;43.28;;;26.10;;
17953;SDS011;9102;53.548;9.926;2023-04-15T10:47:28;42.17;;;25.25;;
17953;SDS011;9102;53.548;9.926;2023-04-15T10:49:58;44.10;;;25.77;;
17953;SDS011;9102;53.548;9.926;2023-04-15T10:52:27;45.60;;;26.73;;
17953;SDS011;9102;53.548;9.926;2023-04-15T10:55:01;42.47;;;25.05;;
17953;SDS011;9102;53.548;9.926;2023-04-15T10:57:33;36.25;;;23.58;;
17953;SDS011;9102;53.548;9.926;2023-04-15T11:00:03;36.13;;;22.50;;
17953;SDS011;9102;53.548;9.926;2023-04-15T11:02:41;39.30;;;24.05;;
17953;SDS011;9102;53.548;9.926;2023-04-15T11:05:11;41.50;;;24.70;;
17953;SDS011;9102;53.548;9.926;2023-04-15T11:07:41;35.50;;;22.45;;
17953;SDS011;9102;53.548;9.926;2023-04-15T11:13:23;32.50;;;20.90;;
17953;SDS011;9102;53.548;9.926;2023-04-15T11:15:57;29.30;;;18.42;;
17953;SDS011;9102;53.548;9.926;2023-04-15T11:18:27;31.35;;;17.88;;
17953;SDS011;9102;53.548;9.926;2023-04-15T11:20:56;30.35;;;15.85;;
17953;SDS011;9102;53.548;9.926;2023-04-15T11:23:28;21.15;;;14.63;;
17953;SDS011;9102;53.548;9.926;2023-04-15T11:26:05;17.80;;;12.02;;
17953;SDS011;9102;53.548;9.926;2023-04-15T11:28:36;18.63;;;12.82;;
17953;SDS011;9102;53.548;9.926;2023-04-15T11:31:08;18.05;;;12.48;;
17953;SDS011;9102;53.548;9.926;2023-04-15T11:33:37;18.90;;;11.85;;
17953;SDS011;9102;53.548;9.926;2023-04-15T11:36:10;21.48;;;13.13;;
17953;SDS011;9102;53.548;9.926;2023-04-15T11:38:41;17.77;;;11.23;;
17953;SDS011;9102;53.548;9.926;2023-04-15T11:41:08;16.83;;;11.05;;
17953;SDS011;9102;53.548;9.926;2023-04-15T11:43:35;14.43;;;10.13;;
17953;SDS011;9102;53.548;9.926;2023-04-15T11:46:02;16.83;;;10.57;;
17953;SDS011;9102;53.548;9.926;2023-04-15T11:48:30;17.20;;;10.88;;
17953;SDS011;9102;53.548;9.926;2023-04-15T11:50:59;16.25;;;10.38;;
17953;SDS011;9102;53.548;9.926;2023-04-15T11:53:34;19.77;;;11.85;;
17953;SDS011;9102;53.548;9.926;2023-04-15T11:56:03;17.60;;;12.00;;
17953;SDS011;9102;53.548;9.926;2023-04-15T11:58:33;16.52;;;11.02;;
17953;SDS011;9102;53.548;9.926;2023-04-15T12:01:01;15.40;;;10.48;;
17953;SDS011;9102;53.548;9.926;2023-04-15T12:03:29;13.93;;;10.18;;
17953;SDS011;9102;53.548;9.926;2023-04-15T12:06:05;16.58;;;10.52;;
17953;SDS011;9102;53.548;9.926;2023-04-15T12:08:47;16.58;;;10.93;;
17953;SDS011;9102;53.548;9.926;2023-04-15T12:11:29;19.67;;;12.20;;
17953;SDS011;9102;53.548;9.926;2023-04-15T12:13:57;17.08;;;11.25;;
17953;SDS011;9102;53.548;9.926;2023-04-15T12:16:27;15.25;;;10.32;;
17953;SDS011;9102;53.548;9.926;2023-04-15T12:18:55;16.50;;;10.25;;
17953;SDS011;9102;53.548;9.926;2023-04-15T12:21:25;15.30;;;10.65;;
17953;SDS011;9102;53.548;9.926;2023-04-15T12:23:54;13.45;;;10.00;;
17953;SDS011;9102;53.548;9.926;2023-04-15T12:26:25;15.48;;;10.93;;
17953;SDS011;9102;53.548;9.926;2023-04-15T12:28:53;15.82;;;10.93;;
17953;SDS011;9102;53.548;9.926;2023-04-15T12:31:20;14.95;;;10.63;;
17953;SDS011;9102;53.548;9.926;2023-04-15T12:33:48;17.35;;;10.52;;
17953;SDS011;9102;53.548;9.926;2023-04-15T12:36:15;15.88;;;10.90;;
17953;SDS011;9102;53.548;9.926;2023-04-15T12:38:43;21.20;;;10.98;;
17953;SDS011;9102;53.548;9.926;2023-04-15T12:41:10;16.40;;;10.57;;
17953;SDS011;9102;53.548;9.926;2023-04-15T12:43:36;16.40;;;10.32;;
17953;SDS011;9102;53.548;9.926;2023-04-15T12:46:03;15.30;;;10.63;;
17953;SDS011;9102;53.548;9.926;2023-04-15T12:48:32;15.07;;;10.50;;
17953;SDS011;9102;53.548;9.926;2023-04-15T12:50:59;13.88;;;9.57;;
17953;SDS011;9102;53.548;9.926;2023-04-15T12:53:26;18.50;;;10.38;;
17953;SDS011;9102;53.548;9.926;2023-04-15T12:55:54;16.20;;;10.63;;
17953;SDS011;9102;53.548;9.926;2023-04-15T12:58:21;15.43;;;9.27;;
17953;SDS011;9102;53.548;9.926;2023-04-15T13:00:48;13.60;;;9.90;;
17953;SDS011;9102;53.548;9.926;2023-04-15T13:03:15;14.35;;;10.75;;
17953;SDS011;9102;53.548;9.926;2023-04-15T13:05:42;18.05;;;10.43;;
17953;SDS011;9102;53.548;9.926;2023-04-15T13:08:09;14.73;;;10.00;;
17953;SDS011;9102;53.548;9.926;2023-04-15T13:10:36;15.98;;;10.70;;
17953;SDS011;9102;53.548;9.926;2023-04-15T13:13:04;18.20;;;10.80;;
17953;SDS011;9102;53.548;9.926;2023-04-15T13:15:31;15.88;;;10.15;;
17953;SDS011;9102;53.548;9.926;2023-04-15T13:17:58;17.38;;;11.23;;
17953;SDS011;9102;53.548;9.926;2023-04-15T13:20:25;14.65;;;10.15;;
17953;SDS011;9102;53.548;9.926;2023-04-15T13:22:52;17.23;;;10.65;;
17953;SDS011;9102;53.548;9.926;2023-04-15T13:25:19;15.98;;;10.50;;
17953;SDS011;9102;53.548;9.926;2023-04-15T13:27:46;14.07;;;9.95;;
17953;SDS011;9102;53.548;9.926;2023-04-15T13:30:14;15.98;;;10.73;;
17953;SDS011;9102;53.548;9.926;2023-04-15T13:32:41;16.10;;;10.75;;
17953;SDS011;9102;53.548;9.926;2023-04-15T13:35:08;15.98;;;9.82;;
17953;SDS011;9102;53.548;9.926;2023-04-15T13:37:35;13.52;;;8.75;;
17953;SDS011;9102;53.548;9.926;2023-04-15T13:40:03;14.23;;;9.38;;
17953;SDS011;9102;53.548;9.926;2023-04-15T13:42:32;13.20;;;9.05;;
17953;SDS011;9102;53.548;9.926;2023-04-15T13:44:59;12.65;;;9.02;;
17953;SDS011;9102;53.548;9.926;2023-04-15T13:47:27;13.50;;;8.93;;
17953;SDS011;9102;53.548;9.926;2023-04-15T13:49:54;12.32;;;8.57;;
17953;SDS011;9102;53.548;9.926;2023-04-15T13:52:21;13.95;;;8.73;;
17953;SDS011;9102;53.548;9.926;2023-04-15T13:54:48;14.13;;;8.90;;
17953;SDS011;9102;53.548;9.926;2023-04-15T13:57:24;13.95;;;9.38;;
17953;SDS011;9102;53.548;9.926;2023-04-15T13:59:51;12.35;;;9.30;;
17953;SDS011;9102;53.548;9.926;2023-04-15T14:02:20;12.23;;;8.73;;
17953;SDS011;9102;53.548;9.926;2023-04-15T14:04:51;12.43;;;8.82;;
17953;SDS011;9102;53.548;9.926;2023-04-15T14:07:20;12.13;;;8.52;;
17953;SDS011;9102;53.548;9.926;2023-04-15T14:09:47;16.38;;;9.55;;
17953;SDS011;9102;53.548;9.926;2023-04-15T14:12:14;12.48;;;8.10;;
17953;SDS011;9102;53.548;9.926;2023-04-15T14:14:41;13.25;;;9.10;;
17953;SDS011;9102;53.548;9.926;2023-04-15T14:17:11;13.07;;;8.55;;
17953;SDS011;9102;53.548;9.926;2023-04-15T14:19:37;11.82;;;7.90;;
17953;SDS011;9102;53.548;9.926;2023-04-15T14:22:13;12.60;;;7.85;;
17953;SDS011;9102;53.548;9.926;2023-04-15T14:24:45;12.20;;;7.40;;
17953;SDS011;9102;53.548;9.926;2023-04-15T14:27:13;13.55;;;7.95;;
17953;SDS011;9102;53.548;9.926;2023-04-15T14:29:46;10.10;;;7.55;;
17953;SDS011;9102;53.548;9.926;2023-04-15T14:32:12;11.00;;;7.40;;
17953;SDS011;9102;53.548;9.926;2023-04-15T14:34:39;15.55;;;8.73;;
17953;SDS011;9102;53.548;9.926;2023-04-15T14:37:07;11.23;;;8.00;;
17953;SDS011;9102;53.548;9.926;2023-04-15T14:39:37;12.05;;;8.75;;
17953;SDS011;9102;53.548;9.926;2023-04-15T14:42:04;13.20;;;8.10;;